createdAt,value
2019-02-26T00:01:16.380Z,6.70
2019-02-26T00:06:20.676Z,6.50
2019-02-26T00:11:28.291Z,6.60
2019-02-26T00:16:35.259Z,6.70
2019-02-26T00:21:37.222Z,6.70
2019-02-26T00:26:43.462Z,6.50
2019-02-26T00:31:49.003Z,6.50
2019-02-26T00:36:53.238Z,6.50
2019-02-26T00:41:58.142Z,6.40
2019-02-26T00:47:04.848Z,6.30
2019-02-26T00:52:11.062Z,6.30
2019-02-26T00:57:15.191Z,6.50
2019-02-26T01:02:19.367Z,6.30
2019-02-26T01:07:24.341Z,6.10
2019-02-26T01:12:30.907Z,6.10
2019-02-26T01:17:35.740Z,6.20
2019-02-26T01:22:42.839Z,6.20
2019-02-26T01:27:48.276Z,6.20
2019-02-26T01:32:53.181Z,6.20
2019-02-26T01:37:59.960Z,6.30
2019-02-26T01:43:05.523Z,6.20
2019-02-26T01:48:11.444Z,6.20
2019-02-26T01:53:17.061Z,6.20
2019-02-26T01:58:21.175Z,6.10
2019-02-26T02:03:27.830Z,6.10
2019-02-26T02:08:31.517Z,5.90
2019-02-26T02:13:38.049Z,6.10
2019-02-26T02:18:46.016Z,6.10
2019-02-26T02:23:49.118Z,6.10
2019-02-26T02:28:53.652Z,6.00
2019-02-26T02:33:57.972Z,6.10
2019-02-26T02:39:02.169Z,6.10
2019-02-26T02:44:06.344Z,6.10
2019-02-26T02:49:12.657Z,6.10
2019-02-26T02:54:18.577Z,5.90
2019-02-26T02:59:22.374Z,6.00
2019-02-26T03:04:29.066Z,5.90
2019-02-26T03:09:37.105Z,5.80
2019-02-26T03:14:40.118Z,5.80
2019-02-26T03:19:44.419Z,5.70
2019-02-26T03:24:51.279Z,5.60
2019-02-26T03:29:56.227Z,5.50
2019-02-26T03:35:04.380Z,5.30
2019-02-26T03:40:08.267Z,5.20
2019-02-26T03:45:14.162Z,4.90
2019-02-26T03:50:18.356Z,5.00
2019-02-26T03:55:22.595Z,4.90
2019-02-26T04:00:26.785Z,4.90
2019-02-26T04:05:31.066Z,4.80
2019-02-26T04:10:35.267Z,4.90
2019-02-26T04:15:39.526Z,4.70
2019-02-26T04:20:44.433Z,4.70
2019-02-26T04:25:54.086Z,4.40
2019-02-26T04:31:44.613Z,4.50
2019-02-26T04:37:38.654Z,4.50
2019-02-26T04:43:10.310Z,4.50
2019-02-26T04:48:17.154Z,4.60
2019-02-26T04:53:20.276Z,4.60
2019-02-26T04:58:24.594Z,4.50
2019-02-26T05:03:28.863Z,4.60
2019-02-26T05:08:37.110Z,4.60
2019-02-26T05:13:38.930Z,4.80
2019-02-26T05:18:44.460Z,4.70
2019-02-26T05:23:50.065Z,4.80
2019-02-26T05:28:54.963Z,4.70
2019-02-26T05:34:00.029Z,4.60
2019-02-26T05:39:05.729Z,4.60
2019-02-26T05:44:10.729Z,4.60
2019-02-26T05:49:17.048Z,4.50
2019-02-26T05:54:22.514Z,4.50
2019-02-26T05:59:26.985Z,4.40
2019-02-26T06:04:32.000Z,4.30
2019-02-26T06:09:37.169Z,4.20
2019-02-26T06:14:41.352Z,4.40
2019-02-26T06:19:47.424Z,4.50
2019-02-26T06:24:54.945Z,4.60
2019-02-26T06:29:59.814Z,4.50
2019-02-26T06:35:06.158Z,4.60
2019-02-26T06:40:10.565Z,4.70
2019-02-26T06:45:16.403Z,4.70
2019-02-26T06:50:20.692Z,4.60
2019-02-26T06:55:24.881Z,4.70
2019-02-26T07:00:29.490Z,4.80
2019-02-26T07:05:33.831Z,4.90
2019-02-26T07:10:38.099Z,5.20
2019-02-26T07:15:42.963Z,5.40
2019-02-26T07:20:52.015Z,6.00
2019-02-26T07:25:54.223Z,6.50
2019-02-26T07:31:00.204Z,7.20
2019-02-26T07:36:04.331Z,8.60
2019-02-26T07:41:08.565Z,9.60
2019-02-26T07:46:14.606Z,10.20
2019-02-26T07:51:18.802Z,12.20
2019-02-26T07:56:23.719Z,14.80
2019-02-26T08:01:28.934Z,17.40
2019-02-26T08:06:33.898Z,19.40
2019-02-26T08:11:41.248Z,21.30
2019-02-26T08:16:49.262Z,23.10
2019-02-26T08:21:52.681Z,24.20
2019-02-26T08:32:02.011Z,25.70
2019-02-26T08:37:06.319Z,26.40
2019-02-26T08:42:12.972Z,27.10
2019-02-26T08:47:19.147Z,27.90
2019-02-26T08:52:25.037Z,27.80
2019-02-26T08:57:29.093Z,29.90
2019-02-26T09:02:33.285Z,29.00
2019-02-26T09:07:37.876Z,29.30
2019-02-26T09:12:44.120Z,29.90
2019-02-26T09:27:58.320Z,31.10
2019-02-26T09:33:03.426Z,31.60
2019-02-26T09:38:08.533Z,32.10
2019-02-26T09:43:14.758Z,32.00
2019-02-26T09:48:19.413Z,31.70
2019-02-26T09:53:24.668Z,31.80
2019-02-26T09:58:28.945Z,31.70
2019-02-26T10:03:36.754Z,31.60
2019-02-26T10:08:39.073Z,32.10
2019-02-26T10:13:44.465Z,32.10
2019-02-26T10:18:49.984Z,32.60
2019-02-26T10:23:56.810Z,32.20
2019-02-26T10:29:04.373Z,32.70
2019-02-26T10:34:10.078Z,32.70
2019-02-26T10:39:12.912Z,32.00
2019-02-26T10:44:17.154Z,31.10
2019-02-26T10:49:21.559Z,30.80
2019-02-26T10:54:25.760Z,30.60
2019-02-26T10:59:30.174Z,29.20
2019-02-26T11:04:35.810Z,29.00
2019-02-26T11:17:09.578Z,29.30
2019-02-26T11:22:17.728Z,29.40
2019-02-26T11:27:19.732Z,29.70
2019-02-26T11:32:23.920Z,29.00
2019-02-26T11:37:29.517Z,28.80
2019-02-26T11:42:34.083Z,29.00
2019-02-26T11:47:39.171Z,30.10
2019-02-26T11:52:44.176Z,31.20
2019-02-26T11:57:49.819Z,31.20
2019-02-26T12:02:54.108Z,30.60
2019-02-26T12:07:58.861Z,31.10
2019-02-26T12:13:03.151Z,29.90
2019-02-26T12:18:19.945Z,30.70
2019-02-26T12:23:25.021Z,30.30
2019-02-26T12:28:32.458Z,29.70
2019-02-26T12:33:35.277Z,29.70
2019-02-26T12:38:39.586Z,29.40
2019-02-26T12:43:46.349Z,29.20
2019-02-26T12:48:50.336Z,29.30
2019-02-26T12:58:58.421Z,27.50
2019-02-26T13:04:02.711Z,26.90
2019-02-26T13:09:07.200Z,26.10
2019-02-26T13:14:11.485Z,26.10
2019-02-26T13:19:21.403Z,26.00
2019-02-26T13:24:26.643Z,26.10
2019-02-26T13:29:28.679Z,26.60
2019-02-26T13:34:32.877Z,26.50
2019-02-26T13:44:43.023Z,26.70
2019-02-26T13:49:47.225Z,26.60
2019-02-26T13:54:51.415Z,27.70
2019-02-26T13:59:55.685Z,27.90
2019-02-26T14:05:00.000Z,29.10
2019-02-26T14:10:04.767Z,28.90
2019-02-26T14:15:10.331Z,28.90
2019-02-26T14:20:14.507Z,29.80
2019-02-26T14:25:18.709Z,30.30
2019-02-26T14:30:22.988Z,30.80
2019-02-26T14:35:27.187Z,30.20
2019-02-26T14:40:31.411Z,28.00
2019-02-26T14:45:35.719Z,26.60
2019-02-26T14:50:39.982Z,27.10
2019-02-26T14:55:44.273Z,26.40
2019-02-26T15:00:57.138Z,25.10
2019-02-26T15:10:58.048Z,22.20
2019-02-26T15:16:02.278Z,21.30
2019-02-26T15:21:07.251Z,21.10
2019-02-26T15:26:11.571Z,21.00
2019-02-26T15:31:16.142Z,20.60
2019-02-26T15:36:20.364Z,19.70
2019-02-26T15:41:25.055Z,19.30
2019-02-26T15:46:30.877Z,18.70
2019-02-26T15:51:35.314Z,18.40
2019-02-26T15:56:40.835Z,18.50
2019-02-26T16:01:45.150Z,18.40
2019-02-26T16:06:49.338Z,18.40
2019-02-26T16:11:53.615Z,18.50
2019-02-26T16:16:57.828Z,18.40
2019-02-26T16:22:02.030Z,17.80
2019-02-26T16:27:06.229Z,17.40
2019-02-26T16:32:10.427Z,17.10
2019-02-26T16:37:14.633Z,16.70
2019-02-26T16:42:19.165Z,16.50
2019-02-26T16:47:23.503Z,16.40
2019-02-26T16:52:28.288Z,16.10
